createdAt,value
2022-09-28T00:00:00.226Z,99240
2022-09-28T00:05:00.185Z,99250
2022-09-28T00:10:00.217Z,99240
2022-09-28T00:15:00.155Z,99250
2022-09-28T00:20:00.194Z,99240
2022-09-28T00:25:00.156Z,99230
2022-09-28T00:30:00.225Z,99230
2022-09-28T00:35:00.187Z,99240
2022-09-28T00:40:00.197Z,99260
2022-09-28T00:45:00.153Z,99240
2022-09-28T00:50:00.182Z,99250
2022-09-28T00:55:00.171Z,99240
2022-09-28T01:00:00.208Z,99260
2022-09-28T01:05:00.177Z,99220
2022-09-28T01:10:00.184Z,99220
2022-09-28T01:15:00.145Z,99270
2022-09-28T01:20:00.192Z,99240
2022-09-28T01:25:00.168Z,99250
2022-09-28T01:30:00.173Z,99250
2022-09-28T01:35:00.151Z,99220
2022-09-28T01:40:00.165Z,99260
2022-09-28T01:45:00.159Z,99250
2022-09-28T01:50:00.162Z,99230
2022-09-28T01:55:00.170Z,99230
2022-09-28T02:00:00.213Z,99240
2022-09-28T02:05:00.160Z,99230
2022-09-28T02:10:00.181Z,99230
2022-09-28T02:15:00.182Z,99230
2022-09-28T02:20:00.178Z,99210
2022-09-28T02:25:00.170Z,99220
2022-09-28T02:30:00.169Z,99230
2022-09-28T02:35:00.170Z,99240
2022-09-28T02:40:00.171Z,99230
2022-09-28T02:45:00.172Z,99260
2022-09-28T02:50:00.158Z,99230
2022-09-28T02:55:00.180Z,99240
2022-09-28T03:00:00.256Z,99260
2022-09-28T03:05:00.167Z,99250
2022-09-28T03:10:00.193Z,99240
2022-09-28T03:15:00.190Z,99260
2022-09-28T03:20:00.175Z,99240
2022-09-28T03:25:00.172Z,99260
2022-09-28T03:30:00.218Z,99240
2022-09-28T03:35:00.207Z,99270
2022-09-28T03:40:00.177Z,99260
2022-09-28T03:45:00.172Z,99240
2022-09-28T03:50:00.240Z,99250
2022-09-28T03:55:00.201Z,99240
2022-09-28T04:00:00.225Z,99260
2022-09-28T04:05:00.189Z,99240
2022-09-28T04:10:00.195Z,99270
2022-09-28T04:15:00.182Z,99250
2022-09-28T04:20:00.184Z,99260
2022-09-28T04:25:00.183Z,99260
2022-09-28T04:30:00.200Z,99280
2022-09-28T04:35:00.172Z,99260
2022-09-28T04:40:00.202Z,99250
2022-09-28T04:45:00.160Z,99260
2022-09-28T04:50:00.223Z,99260
2022-09-28T04:55:00.199Z,99230
2022-09-28T05:00:00.243Z,99250
2022-09-28T05:05:00.183Z,99270
2022-09-28T05:10:00.202Z,99260
2022-09-28T05:15:00.184Z,99260
2022-09-28T05:20:00.193Z,99250
2022-09-28T05:25:00.186Z,99270
2022-09-28T05:30:00.198Z,99270
2022-09-28T05:35:00.172Z,99280
2022-09-28T05:40:00.215Z,99270
2022-09-28T05:45:00.179Z,99270
2022-09-28T05:50:00.184Z,99250
2022-09-28T05:55:00.202Z,99270
2022-09-28T06:00:00.248Z,99260
2022-09-28T06:05:00.182Z,99280
2022-09-28T06:10:00.257Z,99280
2022-09-28T06:15:00.221Z,99280
2022-09-28T06:20:00.185Z,99280
2022-09-28T06:25:00.195Z,99300
2022-09-28T06:30:00.219Z,99300
2022-09-28T06:35:00.197Z,99280
2022-09-28T06:40:00.205Z,99290
2022-09-28T06:45:00.242Z,99310
2022-09-28T06:50:00.209Z,99300
2022-09-28T06:55:00.200Z,99310
2022-09-28T07:00:00.237Z,99310
2022-09-28T07:05:00.233Z,99300
2022-09-28T07:10:00.200Z,99320
2022-09-28T07:15:00.192Z,99320
2022-09-28T07:20:10.971Z,99330
2022-09-28T07:25:00.204Z,99330
2022-09-28T07:30:00.226Z,99320
2022-09-28T07:35:00.213Z,99330
2022-09-28T07:40:00.200Z,99340
2022-09-28T07:45:00.219Z,99330
2022-09-28T07:50:00.221Z,99350
2022-09-28T07:55:04.518Z,99370
2022-09-28T08:00:00.237Z,99360
2022-09-28T08:05:00.210Z,99350
2022-09-28T08:10:00.192Z,99350
2022-09-28T08:15:00.248Z,99360
2022-09-28T08:20:00.193Z,99360
2022-09-28T08:25:00.284Z,99380
2022-09-28T08:30:00.224Z,99380
2022-09-28T08:35:00.211Z,99370
2022-09-28T08:40:00.209Z,99400
2022-09-28T08:45:00.221Z,99390
2022-09-28T08:50:00.399Z,99410
2022-09-28T08:55:00.187Z,99410
2022-09-28T09:00:00.243Z,99400
2022-09-28T09:05:00.224Z,99410
2022-09-28T09:10:00.187Z,99400
2022-09-28T09:15:00.208Z,99410
2022-09-28T09:20:00.208Z,99410
2022-09-28T09:25:00.209Z,99410
2022-09-28T09:30:00.223Z,99410
2022-09-28T09:35:00.200Z,99410
2022-09-28T09:40:00.192Z,99420
2022-09-28T09:45:00.200Z,99420
2022-09-28T09:50:04.064Z,99440
2022-09-28T09:55:00.200Z,99430
2022-09-28T10:00:00.255Z,99450
2022-09-28T10:05:00.191Z,99430
2022-09-28T10:10:00.226Z,99440
2022-09-28T10:15:00.208Z,99430
2022-09-28T10:20:00.239Z,99450
2022-09-28T10:25:00.213Z,99420
2022-09-28T10:30:00.226Z,99410
2022-09-28T10:35:00.212Z,99400
2022-09-28T10:40:00.221Z,99430
2022-09-28T10:45:00.222Z,99400
2022-09-28T10:50:00.205Z,99420
2022-09-28T10:55:00.209Z,99430
2022-09-28T11:00:00.294Z,99440
2022-09-28T11:05:00.247Z,99440
2022-09-28T11:10:00.222Z,99430
2022-09-28T11:15:00.193Z,99430
2022-09-28T11:20:00.211Z,99450
2022-09-28T11:25:00.210Z,99460
2022-09-28T11:30:00.211Z,99420
2022-09-28T11:35:00.539Z,99420
2022-09-28T11:40:00.203Z,99430
2022-09-28T11:45:00.220Z,99420
2022-09-28T11:50:00.222Z,99410
2022-09-28T11:55:00.219Z,99420
2022-09-28T12:00:00.276Z,99420
2022-09-28T12:05:00.190Z,99450
2022-09-28T12:10:00.216Z,99440
2022-09-28T12:15:00.213Z,99420
2022-09-28T12:20:00.261Z,99420
2022-09-28T12:25:00.207Z,99430
2022-09-28T12:30:00.237Z,99430
2022-09-28T12:35:00.210Z,99430
2022-09-28T12:40:00.607Z,99410
2022-09-28T12:45:00.212Z,99420
2022-09-28T12:55:00.300Z,99410
2022-09-28T13:00:00.232Z,99430
2022-09-28T13:05:00.192Z,99400
2022-09-28T13:10:00.338Z,99410
2022-09-28T13:15:00.228Z,99420
2022-09-28T13:20:00.369Z,99410
2022-09-28T13:25:00.197Z,99420
2022-09-28T13:30:00.999Z,99380
2022-09-28T13:35:00.217Z,99410
2022-09-28T13:40:00.220Z,99410
2022-09-28T13:45:00.250Z,99410
2022-09-28T13:50:00.239Z,99420
2022-09-28T13:55:00.206Z,99430
2022-09-28T14:00:00.245Z,99430
2022-09-28T14:05:00.206Z,99420
2022-09-28T14:10:00.216Z,99430
2022-09-28T14:15:00.219Z,99440
2022-09-28T14:20:00.234Z,99450
2022-09-28T14:25:00.230Z,99430
2022-09-28T14:30:00.454Z,99430
2022-09-28T14:35:00.187Z,99420
2022-09-28T14:40:00.204Z,99440
2022-09-28T14:45:05.240Z,99440
2022-09-28T14:50:00.215Z,99440
2022-09-28T14:55:00.258Z,99440
2022-09-28T15:00:00.364Z,99430
2022-09-28T15:05:00.477Z,99440
2022-09-28T15:10:00.236Z,99460
2022-09-28T15:15:00.196Z,99480
2022-09-28T15:20:00.222Z,99480
2022-09-28T15:25:02.702Z,99460
2022-09-28T15:30:00.201Z,99450
2022-09-28T15:35:00.195Z,99480
2022-09-28T15:40:00.200Z,99470
2022-09-28T15:45:00.187Z,99470
2022-09-28T15:50:00.204Z,99490
2022-09-28T15:55:00.199Z,99490
2022-09-28T16:00:00.231Z,99500
2022-09-28T16:05:00.187Z,99500
2022-09-28T16:10:00.208Z,99520
2022-09-28T16:15:00.159Z,99520
2022-09-28T16:20:00.189Z,99510
2022-09-28T16:25:00.183Z,99510
2022-09-28T16:30:00.319Z,99520
2022-09-28T16:35:00.199Z,99510
2022-09-28T16:40:00.315Z,99510
2022-09-28T16:45:00.201Z,99510
2022-09-28T16:50:00.303Z,99500
2022-09-28T16:55:00.207Z,99540
2022-09-28T17:00:00.393Z,99530
2022-09-28T17:05:00.192Z,99530
2022-09-28T17:10:00.195Z,99510
2022-09-28T17:15:00.197Z,99550
2022-09-28T17:20:00.213Z,99530
2022-09-28T17:25:00.209Z,99560
2022-09-28T17:30:00.214Z,99540
2022-09-28T17:35:19.973Z,99580
2022-09-28T17:40:00.217Z,99550
2022-09-28T17:45:00.213Z,99560
2022-09-28T17:50:00.199Z,99540
2022-09-28T17:55:00.178Z,99560
2022-09-28T18:00:00.239Z,99550
2022-09-28T18:05:00.204Z,99560
2022-09-28T18:10:00.192Z,99560
2022-09-28T18:15:00.204Z,99570
2022-09-28T18:20:00.196Z,99550
2022-09-28T18:25:00.195Z,99560
2022-09-28T18:30:00.215Z,99580
2022-09-28T18:35:00.200Z,99580
2022-09-28T18:40:00.195Z,99570
2022-09-28T18:45:00.218Z,99560
2022-09-28T18:50:00.219Z,99560
2022-09-28T18:55:00.191Z,99600
2022-09-28T19:00:00.209Z,99590
2022-09-28T19:05:00.185Z,99580
2022-09-28T19:10:00.246Z,99590
2022-09-28T19:15:00.194Z,99590
2022-09-28T19:20:00.199Z,99600
2022-09-28T19:25:00.217Z,99600
2022-09-28T19:30:00.197Z,99590
2022-09-28T19:35:00.265Z,99590
2022-09-28T19:40:00.196Z,99610
2022-09-28T19:45:00.182Z,99600
2022-09-28T19:50:00.203Z,99610
2022-09-28T19:55:00.217Z,99610
2022-09-28T20:00:02.825Z,99620
2022-09-28T20:05:00.200Z,99600
2022-09-28T20:10:00.206Z,99610
2022-09-28T20:15:00.173Z,99630
2022-09-28T20:20:00.185Z,99610
2022-09-28T20:25:00.181Z,99620
2022-09-28T20:30:00.186Z,99630
2022-09-28T20:35:00.174Z,99620
2022-09-28T20:40:00.196Z,99630
2022-09-28T20:45:00.186Z,99620
2022-09-28T20:50:00.210Z,99630
2022-09-28T20:55:00.163Z,99650
2022-09-28T21:00:00.209Z,99650
2022-09-28T21:05:00.199Z,99640
2022-09-28T21:10:00.226Z,99630
2022-09-28T21:15:04.889Z,99640
2022-09-28T21:20:00.186Z,99630
2022-09-28T21:25:00.173Z,99650
2022-09-28T21:30:00.199Z,99650
2022-09-28T21:35:00.184Z,99680
2022-09-28T21:40:00.187Z,99670
2022-09-28T21:45:00.185Z,99680
2022-09-28T21:50:00.178Z,99670
2022-09-28T21:55:00.184Z,99680
2022-09-28T22:00:00.238Z,99680
2022-09-28T22:05:00.217Z,99690
2022-09-28T22:10:00.180Z,99660
2022-09-28T22:15:00.190Z,99680
2022-09-28T22:20:00.174Z,99700
2022-09-28T22:25:00.174Z,99700
2022-09-28T22:30:00.219Z,99700
2022-09-28T22:35:00.187Z,99710
2022-09-28T22:40:00.197Z,99720
2022-09-28T22:45:00.169Z,99700
2022-09-28T22:50:00.205Z,99700
2022-09-28T22:55:00.183Z,99710
2022-09-28T23:00:00.216Z,99710
2022-09-28T23:05:00.169Z,99690
2022-09-28T23:10:00.207Z,99700
2022-09-28T23:15:00.179Z,99690
2022-09-28T23:20:00.176Z,99710
2022-09-28T23:25:00.183Z,99700
2022-09-28T23:30:00.230Z,99690
2022-09-28T23:35:00.185Z,99720
2022-09-28T23:40:00.184Z,99710
2022-09-28T23:45:00.174Z,99720
2022-09-28T23:50:00.212Z,99730
2022-09-28T23:55:00.159Z,99720
